Time,TemperatureF,DewpointF,PressureIn,WindDirection,WindDirectionDegrees,WindSpeedMPH,WindSpeedGustMPH,Humidity,HourlyPrecipIn,Conditions,Clouds,dailyrainin,SolarRadiationWatts/m^2,SoftwareType,DateUTC
2013-02-16 00:21:00,57.0,27.0,-100.00,SE,143,3.0,7.0,32,0.00,,,0.00,0.000000,,2013-02-16 08:21:00,
2013-02-16 00:41:00,57.0,27.0,-100.00,SE,143,3.0,7.0,32,0.00,,,0.00,0.000000,,2013-02-16 08:41:00,
2013-02-16 00:52:00,57.0,27.0,-100.00,SE,143,3.0,7.0,32,0.00,,,0.00,0.000000,,2013-02-16 08:52:00,
2013-02-16 01:21:00,59.0,27.0,-100.00,ENE,69,3.0,8.0,29,-99.99,,,0.00,0.000000,,2013-02-16 09:21:00,
2013-02-16 02:21:00,60.0,25.0,-100.00,East,85,2.0,6.0,26,-99.99,,,0.00,0.000000,,2013-02-16 10:21:00,
2013-02-16 03:22:00,53.0,26.0,-100.00,West,263,1.0,4.0,35,-99.99,,,0.00,0.000000,,2013-02-16 11:22:00,
2013-02-16 03:31:00,53.0,26.0,-100.00,West,263,1.0,4.0,35,-99.99,,,0.00,0.000000,,2013-02-16 11:31:00,
2013-02-16 03:42:00,53.0,26.0,-100.00,West,263,1.0,4.0,35,-99.99,,,0.00,0.000000,,2013-02-16 11:42:00,
2013-02-16 03:52:00,53.0,26.0,-100.00,West,263,1.0,4.0,35,-99.99,,,0.00,0.000000,,2013-02-16 11:52:00,
2013-02-16 04:12:00,51.0,26.0,-100.00,SSW,205,2.0,4.0,38,-99.99,,,0.00,0.000000,,2013-02-16 12:12:00,
2013-02-16 04:22:00,51.0,26.0,-100.00,SSW,205,2.0,4.0,38,-99.99,,,0.00,0.000000,,2013-02-16 12:22:00,
2013-02-16 05:11:00,54.0,25.0,-100.00,NNE,24,2.0,4.0,32,-99.99,,,0.00,0.000000,,2013-02-16 13:11:00,
2013-02-16 05:21:00,54.0,25.0,-100.00,NNE,24,2.0,4.0,32,-99.99,,,0.00,0.000000,,2013-02-16 13:21:00,
2013-02-16 06:11:00,50.0,26.0,-100.00,East,87,1.0,4.0,39,-99.99,,,0.00,0.000000,,2013-02-16 14:11:00,
2013-02-16 07:21:00,47.0,26.0,-100.00,ESE,110,2.0,3.0,43,-99.99,,,0.00,0.000000,,2013-02-16 15:21:00,
2013-02-16 07:31:00,47.0,26.0,-100.00,ESE,110,2.0,3.0,43,-99.99,,,0.00,0.000000,,2013-02-16 15:31:00,
2013-02-16 07:41:00,47.0,26.0,-100.00,ESE,110,2.0,3.0,43,-99.99,,,0.00,0.000000,,2013-02-16 15:41:00,
2013-02-16 07:51:00,47.0,26.0,-100.00,ESE,110,2.0,3.0,43,-99.99,,,0.00,0.000000,,2013-02-16 15:51:00,
2013-02-16 08:11:00,48.0,26.0,-100.00,SE,136,1.0,4.0,42,0.00,,,0.00,26.000000,,2013-02-16 16:11:00,
2013-02-16 08:21:00,48.0,26.0,-100.00,SE,136,1.0,4.0,42,0.00,,,0.00,26.000000,,2013-02-16 16:21:00,
2013-02-16 08:32:00,48.0,26.0,-100.00,SE,136,1.0,4.0,42,0.00,,,0.00,26.000000,,2013-02-16 16:32:00,
2013-02-16 08:41:00,48.0,26.0,-100.00,SE,136,1.0,4.0,42,0.00,,,0.00,26.000000,,2013-02-16 16:41:00,
2013-02-16 08:51:00,48.0,26.0,-100.00,SE,136,1.0,4.0,42,0.00,,,0.00,26.000000,,2013-02-16 16:51:00,
2013-02-16 09:21:00,54.0,33.0,-100.00,WSW,249,1.0,4.0,45,0.00,,,0.00,91.000000,,2013-02-16 17:21:00,
2013-02-16 09:32:00,54.0,33.0,-100.00,WSW,249,1.0,4.0,45,0.00,,,0.00,91.000000,,2013-02-16 17:32:00,
2013-02-16 09:41:00,54.0,33.0,-100.00,WSW,249,1.0,4.0,45,0.00,,,0.00,91.000000,,2013-02-16 17:41:00,
2013-02-16 09:52:00,54.0,33.0,-100.00,WSW,249,1.0,4.0,45,0.00,,,0.00,91.000000,,2013-02-16 17:52:00,
2013-02-16 10:11:00,60.0,35.0,-100.00,West,272,1.0,3.0,39,0.00,,,0.00,195.000000,,2013-02-16 18:11:00,
2013-02-16 10:21:00,60.0,35.0,-100.00,West,272,1.0,3.0,39,0.00,,,0.00,195.000000,,2013-02-16 18:21:00,
2013-02-16 10:32:00,60.0,35.0,-100.00,West,272,1.0,3.0,39,0.00,,,0.00,195.000000,,2013-02-16 18:32:00,
2013-02-16 10:41:00,60.0,35.0,-100.00,West,272,1.0,3.0,39,0.00,,,0.00,195.000000,,2013-02-16 18:41:00,
2013-02-16 10:51:00,60.0,35.0,-100.00,West,272,1.0,3.0,39,0.00,,,0.00,195.000000,,2013-02-16 18:51:00,
2013-02-16 11:11:00,69.0,39.0,-100.00,WSW,238,3.0,4.0,34,0.00,,,0.00,407.000000,,2013-02-16 19:11:00,
2013-02-16 11:21:00,69.0,39.0,-100.00,WSW,238,3.0,4.0,34,0.00,,,0.00,407.000000,,2013-02-16 19:21:00,
2013-02-16 11:31:00,69.0,39.0,-100.00,WSW,238,3.0,4.0,34,0.00,,,0.00,407.000000,,2013-02-16 19:31:00,
2013-02-16 11:42:00,69.0,39.0,-100.00,WSW,238,3.0,4.0,34,0.00,,,0.00,407.000000,,2013-02-16 19:42:00,
2013-02-16 11:52:00,69.0,39.0,-100.00,WSW,238,3.0,4.0,34,0.00,,,0.00,407.000000,,2013-02-16 19:52:00,
2013-02-16 12:11:00,76.0,29.0,-100.00,West,273,3.0,6.0,18,0.00,,,0.00,495.000000,,2013-02-16 20:11:00,
2013-02-16 12:21:00,76.0,29.0,-100.00,West,273,3.0,6.0,18,0.00,,,0.00,495.000000,,2013-02-16 20:21:00,
2013-02-16 12:32:00,76.0,29.0,-100.00,West,273,3.0,6.0,18,0.00,,,0.00,495.000000,,2013-02-16 20:32:00,
2013-02-16 12:42:00,76.0,29.0,-100.00,West,273,3.0,6.0,18,0.00,,,0.00,495.000000,,2013-02-16 20:42:00,
2013-02-16 12:52:00,76.0,29.0,-100.00,West,273,3.0,6.0,18,0.00,,,0.00,495.000000,,2013-02-16 20:52:00,
2013-02-16 13:11:00,77.0,16.0,-100.00,SSE,167,5.0,10.0,10,0.00,,,0.00,522.000000,,2013-02-16 21:11:00,
2013-02-16 13:21:00,77.0,16.0,-100.00,SSE,167,5.0,10.0,10,0.00,,,0.00,522.000000,,2013-02-16 21:21:00,
2013-02-16 13:41:00,77.0,16.0,-100.00,SSE,167,5.0,10.0,10,0.00,,,0.00,522.000000,,2013-02-16 21:41:00,
2013-02-16 13:51:00,77.0,16.0,-100.00,SSE,167,5.0,10.0,10,0.00,,,0.00,522.000000,,2013-02-16 21:51:00,
2013-02-16 14:11:00,76.0,18.0,-100.00,SW,214,4.0,9.0,11,0.00,,,0.00,474.000000,,2013-02-16 22:11:00,
2013-02-16 14:21:00,76.0,18.0,-100.00,SW,214,4.0,9.0,11,0.00,,,0.00,474.000000,,2013-02-16 22:21:00,
2013-02-16 15:21:00,77.0,22.0,-100.00,NW,311,6.0,13.0,13,0.00,,,0.00,516.000000,,2013-02-16 23:21:00,
2013-02-16 15:31:00,77.0,22.0,-100.00,NW,311,6.0,13.0,13,0.00,,,0.00,516.000000,,2013-02-16 23:31:00,
2013-02-16 15:42:00,77.0,22.0,-100.00,NW,311,6.0,13.0,13,0.00,,,0.00,516.000000,,2013-02-16 23:42:00,
2013-02-16 15:52:00,77.0,22.0,-100.00,NW,311,6.0,13.0,13,0.00,,,0.00,516.000000,,2013-02-16 23:52:00,
2013-02-16 16:21:00,75.0,23.0,-100.00,NW,312,7.0,11.0,14,0.00,,,0.00,413.000000,,2013-02-17 00:21:00,
2013-02-16 16:31:00,75.0,23.0,-100.00,NW,312,7.0,11.0,14,0.00,,,0.00,413.000000,,2013-02-17 00:31:00,
2013-02-16 17:21:00,71.0,32.0,-100.00,NW,324,5.0,11.0,24,0.00,,,0.00,254.000000,,2013-02-17 01:21:00,
2013-02-16 17:31:00,71.0,32.0,-100.00,NW,324,5.0,11.0,24,0.00,,,0.00,254.000000,,2013-02-17 01:31:00,
2013-02-16 17:41:00,71.0,32.0,-100.00,NW,324,5.0,11.0,24,0.00,,,0.00,254.000000,,2013-02-17 01:41:00,
2013-02-16 17:52:00,71.0,32.0,-100.00,NW,324,5.0,11.0,24,0.00,,,0.00,254.000000,,2013-02-17 01:52:00,
2013-02-16 18:21:00,62.0,32.0,-100.00,NW,311,4.0,8.0,32,0.00,,,0.00,33.000000,,2013-02-17 02:21:00,
2013-02-16 18:31:00,62.0,32.0,-100.00,NW,311,4.0,8.0,32,0.00,,,0.00,33.000000,,2013-02-17 02:31:00,
2013-02-16 18:41:00,62.0,32.0,-100.00,NW,311,4.0,8.0,32,0.00,,,0.00,33.000000,,2013-02-17 02:41:00,
2013-02-16 18:51:00,62.0,32.0,-100.00,NW,311,4.0,8.0,32,0.00,,,0.00,33.000000,,2013-02-17 02:51:00,
2013-02-16 19:11:00,53.0,29.0,-100.00,ESE,112,1.0,5.0,39,0.00,,,0.00,0.000000,,2013-02-17 03:11:00,
2013-02-16 19:21:00,53.0,29.0,-100.00,ESE,112,1.0,5.0,39,0.00,,,0.00,0.000000,,2013-02-17 03:21:00,
2013-02-16 19:31:00,53.0,29.0,-100.00,ESE,112,1.0,5.0,39,0.00,,,0.00,0.000000,,2013-02-17 03:31:00,
2013-02-16 19:42:00,53.0,29.0,-100.00,ESE,112,1.0,5.0,39,0.00,,,0.00,0.000000,,2013-02-17 03:42:00,
2013-02-16 19:51:00,53.0,29.0,-100.00,ESE,112,1.0,5.0,39,0.00,,,0.00,0.000000,,2013-02-17 03:51:00,
2013-02-16 20:11:00,51.0,30.0,-100.00,NE,55,0.0,4.0,45,0.00,,,0.00,0.000000,,2013-02-17 04:11:00,
2013-02-16 20:21:00,51.0,30.0,-100.00,NE,55,0.0,4.0,45,0.00,,,0.00,0.000000,,2013-02-17 04:21:00,
2013-02-16 20:31:00,51.0,30.0,-100.00,NE,55,0.0,4.0,45,0.00,,,0.00,0.000000,,2013-02-17 04:31:00,
2013-02-16 20:41:00,51.0,30.0,-100.00,NE,55,0.0,4.0,45,0.00,,,0.00,0.000000,,2013-02-17 04:41:00,
2013-02-16 20:51:00,51.0,30.0,-100.00,NE,55,0.0,4.0,45,0.00,,,0.00,0.000000,,2013-02-17 04:51:00,
2013-02-16 21:22:00,48.0,31.0,-100.00,SSE,150,0.0,0.0,51,0.00,,,0.00,0.000000,,2013-02-17 05:22:00,
2013-02-16 21:32:00,48.0,31.0,-100.00,SSE,150,0.0,0.0,51,0.00,,,0.00,0.000000,,2013-02-17 05:32:00,
2013-02-16 21:42:00,48.0,31.0,-100.00,SSE,150,0.0,0.0,51,0.00,,,0.00,0.000000,,2013-02-17 05:42:00,
2013-02-16 21:52:00,48.0,31.0,-100.00,SSE,150,0.0,0.0,51,0.00,,,0.00,0.000000,,2013-02-17 05:52:00,
2013-02-16 22:11:00,46.0,30.0,-100.00,North,357,0.0,0.0,53,0.00,,,0.00,0.000000,,2013-02-17 06:11:00,
2013-02-16 22:21:00,46.0,30.0,-100.00,North,357,0.0,0.0,53,0.00,,,0.00,0.000000,,2013-02-17 06:21:00,
2013-02-16 22:31:00,46.0,30.0,-100.00,North,357,0.0,0.0,53,0.00,,,0.00,0.000000,,2013-02-17 06:31:00,
2013-02-16 22:41:00,46.0,30.0,-100.00,North,357,0.0,0.0,53,0.00,,,0.00,0.000000,,2013-02-17 06:41:00,
2013-02-16 22:51:00,46.0,30.0,-100.00,North,357,0.0,0.0,53,0.00,,,0.00,0.000000,,2013-02-17 06:51:00,
2013-02-16 23:11:00,45.0,29.0,-100.00,NNE,27,0.0,0.0,54,0.00,,,0.00,0.000000,,2013-02-17 07:11:00,
2013-02-16 23:21:00,45.0,29.0,-100.00,NNE,27,0.0,0.0,54,0.00,,,0.00,0.000000,,2013-02-17 07:21:00,
2013-02-16 23:31:00,45.0,29.0,-100.00,NNE,27,0.0,0.0,54,0.00,,,0.00,0.000000,,2013-02-17 07:31:00,
2013-02-16 23:41:00,45.0,29.0,-100.00,NNE,27,0.0,0.0,54,0.00,,,0.00,0.000000,,2013-02-17 07:41:00,
2013-02-16 23:51:00,45.0,29.0,-100.00,NNE,27,0.0,0.0,54,0.00,,,0.00,0.000000,,2013-02-17 07:51:00,